sensor_id;sensor_type;location;lat;lon;timestamp;P1;durP1;ratioP1;P2;durP2;ratioP2
72156;SDS011;60035;52.122;5.406;2023-07-31T00:00:14;3.17;;;1.15;;
72156;SDS011;60035;52.122;5.406;2023-07-31T00:02:41;7.88;;;1.27;;
72156;SDS011;60035;52.122;5.406;2023-07-31T00:05:08;6.50;;;1.40;;
72156;SDS011;60035;52.122;5.406;2023-07-31T00:07:36;4.68;;;1.67;;
72156;SDS011;60035;52.122;5.406;2023-07-31T00:10:02;3.03;;;0.93;;
72156;SDS011;60035;52.122;5.406;2023-07-31T00:12:29;2.85;;;0.88;;
72156;SDS011;60035;52.122;5.406;2023-07-31T00:14:55;6.40;;;1.13;;
72156;SDS011;60035;52.122;5.406;2023-07-31T00:17:22;3.63;;;1.02;;
72156;SDS011;60035;52.122;5.406;2023-07-31T00:19:48;3.78;;;1.08;;
72156;SDS011;60035;52.122;5.406;2023-07-31T00:22:16;5.53;;;1.23;;
72156;SDS011;60035;52.122;5.406;2023-07-31T00:24:43;6.15;;;1.20;;
72156;SDS011;60035;52.122;5.406;2023-07-31T00:27:09;4.25;;;1.30;;
72156;SDS011;60035;52.122;5.406;2023-07-31T00:29:36;4.57;;;1.52;;
72156;SDS011;60035;52.122;5.406;2023-07-31T00:32:03;6.15;;;2.05;;
72156;SDS011;60035;52.122;5.406;2023-07-31T00:34:30;6.85;;;2.10;;
72156;SDS011;60035;52.122;5.406;2023-07-31T00:36:56;7.38;;;2.17;;
72156;SDS011;60035;52.122;5.406;2023-07-31T00:39:23;10.65;;;2.67;;
72156;SDS011;60035;52.122;5.406;2023-07-31T00:41:49;10.13;;;3.05;;
72156;SDS011;60035;52.122;5.406;2023-07-31T00:44:16;13.40;;;3.20;;
72156;SDS011;60035;52.122;5.406;2023-07-31T00:46:42;13.65;;;3.20;;
72156;SDS011;60035;52.122;5.406;2023-07-31T00:49:09;19.15;;;3.08;;
72156;SDS011;60035;52.122;5.406;2023-07-31T00:51:37;20.77;;;4.25;;
72156;SDS011;60035;52.122;5.406;2023-07-31T00:54:03;15.77;;;4.13;;
72156;SDS011;60035;52.122;5.406;2023-07-31T00:56:30;22.98;;;4.63;;
72156;SDS011;60035;52.122;5.406;2023-07-31T00:58:57;20.85;;;5.03;;
72156;SDS011;60035;52.122;5.406;2023-07-31T01:01:23;21.35;;;4.47;;
72156;SDS011;60035;52.122;5.406;2023-07-31T01:03:50;23.73;;;5.25;;
72156;SDS011;60035;52.122;5.406;2023-07-31T01:11:52;22.80;;;5.05;;
72156;SDS011;60035;52.122;5.406;2023-07-31T01:14:19;21.83;;;4.70;;
72156;SDS011;60035;52.122;5.406;2023-07-31T01:16:46;24.45;;;4.93;;
72156;SDS011;60035;52.122;5.406;2023-07-31T01:19:14;16.17;;;3.45;;
72156;SDS011;60035;52.122;5.406;2023-07-31T01:27:39;18.10;;;3.60;;
72156;SDS011;60035;52.122;5.406;2023-07-31T01:30:15;17.55;;;4.20;;
72156;SDS011;60035;52.122;5.406;2023-07-31T01:32:43;18.23;;;4.07;;
72156;SDS011;60035;52.122;5.406;2023-07-31T01:35:14;15.27;;;3.75;;
72156;SDS011;60035;52.122;5.406;2023-07-31T01:37:41;17.83;;;4.30;;
72156;SDS011;60035;52.122;5.406;2023-07-31T01:40:07;17.60;;;4.45;;
72156;SDS011;60035;52.122;5.406;2023-07-31T01:42:34;18.52;;;4.80;;
72156;SDS011;60035;52.122;5.406;2023-07-31T01:45:01;22.75;;;4.65;;
72156;SDS011;60035;52.122;5.406;2023-07-31T01:47:28;24.48;;;4.60;;
72156;SDS011;60035;52.122;5.406;2023-07-31T01:49:54;20.10;;;4.47;;
72156;SDS011;60035;52.122;5.406;2023-07-31T01:52:21;19.10;;;4.95;;
72156;SDS011;60035;52.122;5.406;2023-07-31T01:54:47;18.67;;;4.53;;
72156;SDS011;60035;52.122;5.406;2023-07-31T01:57:14;19.88;;;4.85;;
72156;SDS011;60035;52.122;5.406;2023-07-31T01:59:40;20.10;;;4.57;;
72156;SDS011;60035;52.122;5.406;2023-07-31T02:02:07;21.85;;;4.63;;
72156;SDS011;60035;52.122;5.406;2023-07-31T02:04:34;22.55;;;5.30;;
72156;SDS011;60035;52.122;5.406;2023-07-31T02:07:00;20.38;;;5.07;;
72156;SDS011;60035;52.122;5.406;2023-07-31T02:09:30;17.80;;;4.07;;
72156;SDS011;60035;52.122;5.406;2023-07-31T02:11:56;16.05;;;4.00;;
72156;SDS011;60035;52.122;5.406;2023-07-31T02:14:23;14.98;;;4.15;;
72156;SDS011;60035;52.122;5.406;2023-07-31T02:16:49;15.43;;;4.25;;
72156;SDS011;60035;52.122;5.406;2023-07-31T02:19:17;18.58;;;4.05;;
72156;SDS011;60035;52.122;5.406;2023-07-31T02:21:43;17.15;;;4.15;;
72156;SDS011;60035;52.122;5.406;2023-07-31T02:24:10;15.73;;;3.55;;
72156;SDS011;60035;52.122;5.406;2023-07-31T02:26:36;17.33;;;4.13;;
72156;SDS011;60035;52.122;5.406;2023-07-31T02:29:04;19.85;;;4.82;;
72156;SDS011;60035;52.122;5.406;2023-07-31T02:31:30;17.90;;;4.20;;
72156;SDS011;60035;52.122;5.406;2023-07-31T02:33:57;18.60;;;3.95;;
72156;SDS011;60035;52.122;5.406;2023-07-31T02:36:23;24.73;;;4.40;;
72156;SDS011;60035;52.122;5.406;2023-07-31T02:38:50;15.73;;;3.72;;
72156;SDS011;60035;52.122;5.406;2023-07-31T02:41:16;18.35;;;3.95;;
72156;SDS011;60035;52.122;5.406;2023-07-31T02:43:43;19.60;;;3.95;;
72156;SDS011;60035;52.122;5.406;2023-07-31T02:46:09;20.25;;;4.10;;
72156;SDS011;60035;52.122;5.406;2023-07-31T02:48:38;16.90;;;4.32;;
72156;SDS011;60035;52.122;5.406;2023-07-31T02:51:04;17.30;;;3.53;;
72156;SDS011;60035;52.122;5.406;2023-07-31T02:53:31;21.13;;;4.78;;
72156;SDS011;60035;52.122;5.406;2023-07-31T02:55:57;14.70;;;4.05;;
72156;SDS011;60035;52.122;5.406;2023-07-31T02:58:24;16.27;;;3.88;;
72156;SDS011;60035;52.122;5.406;2023-07-31T03:00:50;14.80;;;4.18;;
72156;SDS011;60035;52.122;5.406;2023-07-31T03:03:17;20.35;;;4.22;;
72156;SDS011;60035;52.122;5.406;2023-07-31T03:05:44;15.88;;;4.18;;
72156;SDS011;60035;52.122;5.406;2023-07-31T03:08:10;19.80;;;4.45;;
72156;SDS011;60035;52.122;5.406;2023-07-31T03:10:37;16.90;;;3.83;;
72156;SDS011;60035;52.122;5.406;2023-07-31T03:13:03;20.35;;;5.10;;
72156;SDS011;60035;52.122;5.406;2023-07-31T03:15:30;21.60;;;4.78;;
72156;SDS011;60035;52.122;5.406;2023-07-31T03:17:56;20.10;;;4.82;;
72156;SDS011;60035;52.122;5.406;2023-07-31T03:20:23;22.08;;;4.57;;
72156;SDS011;60035;52.122;5.406;2023-07-31T03:22:50;21.50;;;5.55;;
72156;SDS011;60035;52.122;5.406;2023-07-31T03:25:16;17.77;;;5.10;;
72156;SDS011;60035;52.122;5.406;2023-07-31T03:27:43;17.00;;;4.80;;
72156;SDS011;60035;52.122;5.406;2023-07-31T03:30:09;18.88;;;4.32;;
72156;SDS011;60035;52.122;5.406;2023-07-31T03:32:36;20.02;;;5.15;;
72156;SDS011;60035;52.122;5.406;2023-07-31T03:35:03;19.08;;;5.20;;
72156;SDS011;60035;52.122;5.406;2023-07-31T03:37:31;18.40;;;4.68;;
72156;SDS011;60035;52.122;5.406;2023-07-31T03:39:58;26.10;;;5.03;;
72156;SDS011;60035;52.122;5.406;2023-07-31T03:42:25;16.15;;;5.00;;
72156;SDS011;60035;52.122;5.406;2023-07-31T03:44:51;23.60;;;5.43;;
72156;SDS011;60035;52.122;5.406;2023-07-31T03:47:18;21.13;;;5.60;;
72156;SDS011;60035;52.122;5.406;2023-07-31T03:49:44;22.33;;;5.45;;
72156;SDS011;60035;52.122;5.406;2023-07-31T03:52:11;21.10;;;5.53;;
72156;SDS011;60035;52.122;5.406;2023-07-31T03:54:37;19.20;;;5.35;;
72156;SDS011;60035;52.122;5.406;2023-07-31T03:57:04;21.45;;;5.30;;
72156;SDS011;60035;52.122;5.406;2023-07-31T03:59:30;19.77;;;4.95;;
72156;SDS011;60035;52.122;5.406;2023-07-31T04:01:57;20.58;;;4.97;;
72156;SDS011;60035;52.122;5.406;2023-07-31T04:04:23;19.85;;;4.72;;
72156;SDS011;60035;52.122;5.406;2023-07-31T04:06:50;20.80;;;5.07;;
72156;SDS011;60035;52.122;5.406;2023-07-31T04:09:17;23.50;;;5.38;;
72156;SDS011;60035;52.122;5.406;2023-07-31T04:11:43;24.90;;;5.30;;
72156;SDS011;60035;52.122;5.406;2023-07-31T04:14:10;19.00;;;5.00;;
72156;SDS011;60035;52.122;5.406;2023-07-31T04:16:36;17.10;;;5.15;;
72156;SDS011;60035;52.122;5.406;2023-07-31T04:19:05;23.77;;;5.30;;
72156;SDS011;60035;52.122;5.406;2023-07-31T04:21:31;19.27;;;5.30;;
72156;SDS011;60035;52.122;5.406;2023-07-31T04:23:57;18.58;;;5.38;;
72156;SDS011;60035;52.122;5.406;2023-07-31T04:26:24;21.65;;;5.63;;
72156;SDS011;60035;52.122;5.406;2023-07-31T04:28:52;20.42;;;5.47;;
72156;SDS011;60035;52.122;5.406;2023-07-31T04:31:18;15.93;;;4.50;;
72156;SDS011;60035;52.122;5.406;2023-07-31T04:33:45;17.45;;;5.18;;
72156;SDS011;60035;52.122;5.406;2023-07-31T04:36:11;20.60;;;4.55;;
72156;SDS011;60035;52.122;5.406;2023-07-31T04:38:38;19.92;;;5.53;;
72156;SDS011;60035;52.122;5.406;2023-07-31T04:41:05;21.58;;;5.72;;
72156;SDS011;60035;52.122;5.406;2023-07-31T04:43:31;22.75;;;5.03;;
72156;SDS011;60035;52.122;5.406;2023-07-31T04:45:58;17.50;;;5.05;;
72156;SDS011;60035;52.122;5.406;2023-07-31T04:48:25;18.63;;;4.82;;
72156;SDS011;60035;52.122;5.406;2023-07-31T04:50:51;19.48;;;5.40;;
72156;SDS011;60035;52.122;5.406;2023-07-31T04:53:18;16.95;;;5.18;;
72156;SDS011;60035;52.122;5.406;2023-07-31T04:55:45;18.35;;;5.30;;
72156;SDS011;60035;52.122;5.406;2023-07-31T04:58:11;18.92;;;5.20;;
72156;SDS011;60035;52.122;5.406;2023-07-31T05:00:38;15.23;;;4.32;;
72156;SDS011;60035;52.122;5.406;2023-07-31T05:03:04;16.08;;;4.57;;
72156;SDS011;60035;52.122;5.406;2023-07-31T05:05:31;16.58;;;4.68;;
72156;SDS011;60035;52.122;5.406;2023-07-31T05:07:58;16.20;;;4.35;;
72156;SDS011;60035;52.122;5.406;2023-07-31T05:10:24;14.00;;;4.65;;
72156;SDS011;60035;52.122;5.406;2023-07-31T05:12:51;18.33;;;4.47;;
72156;SDS011;60035;52.122;5.406;2023-07-31T05:15:17;19.10;;;5.13;;
72156;SDS011;60035;52.122;5.406;2023-07-31T05:17:45;16.27;;;4.55;;
72156;SDS011;60035;52.122;5.406;2023-07-31T05:20:11;14.60;;;4.70;;
72156;SDS011;60035;52.122;5.406;2023-07-31T05:22:39;15.45;;;4.28;;
72156;SDS011;60035;52.122;5.406;2023-07-31T05:25:05;15.60;;;5.13;;
72156;SDS011;60035;52.122;5.406;2023-07-31T05:27:32;14.80;;;4.28;;
72156;SDS011;60035;52.122;5.406;2023-07-31T05:29:58;17.42;;;4.82;;
72156;SDS011;60035;52.122;5.406;2023-07-31T05:32:25;15.82;;;4.53;;
72156;SDS011;60035;52.122;5.406;2023-07-31T05:34:52;13.75;;;4.43;;
72156;SDS011;60035;52.122;5.406;2023-07-31T05:37:19;15.20;;;3.45;;
72156;SDS011;60035;52.122;5.406;2023-07-31T05:39:48;12.45;;;3.33;;
72156;SDS011;60035;52.122;5.406;2023-07-31T05:42:15;12.43;;;3.75;;
72156;SDS011;60035;52.122;5.406;2023-07-31T05:44:41;10.10;;;3.28;;
72156;SDS011;60035;52.122;5.406;2023-07-31T05:47:08;13.07;;;3.67;;
72156;SDS011;60035;52.122;5.406;2023-07-31T05:49:34;9.75;;;2.83;;
72156;SDS011;60035;52.122;5.406;2023-07-31T05:52:01;9.90;;;3.25;;
72156;SDS011;60035;52.122;5.406;2023-07-31T05:54:27;11.10;;;2.88;;
72156;SDS011;60035;52.122;5.406;2023-07-31T05:56:54;11.05;;;2.92;;
72156;SDS011;60035;52.122;5.406;2023-07-31T05:59:20;9.15;;;3.20;;
72156;SDS011;60035;52.122;5.406;2023-07-31T06:01:47;11.00;;;4.00;;
72156;SDS011;60035;52.122;5.406;2023-07-31T06:04:13;11.30;;;4.45;;
72156;SDS011;60035;52.122;5.406;2023-07-31T06:06:40;14.05;;;3.90;;
72156;SDS011;60035;52.122;5.406;2023-07-31T06:09:07;11.25;;;3.97;;
72156;SDS011;60035;52.122;5.406;2023-07-31T06:11:33;14.50;;;4.35;;
72156;SDS011;60035;52.122;5.406;2023-07-31T06:14:00;12.25;;;3.95;;
72156;SDS011;60035;52.122;5.406;2023-07-31T06:16:29;11.35;;;4.00;;
72156;SDS011;60035;52.122;5.406;2023-07-31T06:18:56;13.30;;;4.10;;
72156;SDS011;60035;52.122;5.406;2023-07-31T06:21:22;11.68;;;3.50;;
72156;SDS011;60035;52.122;5.406;2023-07-31T06:23:49;9.75;;;3.88;;
72156;SDS011;60035;52.122;5.406;2023-07-31T06:26:15;10.95;;;3.65;;
72156;SDS011;60035;52.122;5.406;2023-07-31T06:28:42;10.18;;;3.75;;
72156;SDS011;60035;52.122;5.406;2023-07-31T06:31:08;12.27;;;3.55;;
72156;SDS011;60035;52.122;5.406;2023-07-31T06:33:36;9.68;;;3.40;;
72156;SDS011;60035;52.122;5.406;2023-07-31T06:36:02;9.95;;;3.92;;
72156;SDS011;60035;52.122;5.406;2023-07-31T06:38:29;8.73;;;3.35;;
72156;SDS011;60035;52.122;5.406;2023-07-31T06:40:56;12.07;;;3.30;;
72156;SDS011;60035;52.122;5.406;2023-07-31T06:43:22;9.38;;;3.20;;
72156;SDS011;60035;52.122;5.406;2023-07-31T06:45:49;10.48;;;2.83;;
72156;SDS011;60035;52.122;5.406;2023-07-31T06:48:17;6.40;;;2.72;;
72156;SDS011;60035;52.122;5.406;2023-07-31T06:50:44;10.10;;;3.17;;
72156;SDS011;60035;52.122;5.406;2023-07-31T06:53:10;9.52;;;2.92;;
72156;SDS011;60035;52.122;5.406;2023-07-31T06:55:37;9.15;;;2.90;;
72156;SDS011;60035;52.122;5.406;2023-07-31T06:58:04;9.00;;;3.05;;
72156;SDS011;60035;52.122;5.406;2023-07-31T07:00:30;7.05;;;2.83;;
72156;SDS011;60035;52.122;5.406;2023-07-31T07:02:57;10.35;;;3.22;;
72156;SDS011;60035;52.122;5.406;2023-07-31T07:05:23;8.13;;;3.03;;
72156;SDS011;60035;52.122;5.406;2023-07-31T07:07:50;7.45;;;2.85;;
72156;SDS011;60035;52.122;5.406;2023-07-31T07:10:18;9.45;;;3.42;;
72156;SDS011;60035;52.122;5.406;2023-07-31T07:12:45;7.25;;;2.92;;
72156;SDS011;60035;52.122;5.406;2023-07-31T07:15:12;8.75;;;3.20;;
72156;SDS011;60035;52.122;5.406;2023-07-31T07:17:38;8.85;;;3.22;;
72156;SDS011;60035;52.122;5.406;2023-07-31T07:20:06;8.10;;;3.20;;
72156;SDS011;60035;52.122;5.406;2023-07-31T07:22:34;9.00;;;3.40;;
72156;SDS011;60035;52.122;5.406;2023-07-31T07:25:00;9.10;;;3.40;;
72156;SDS011;60035;52.122;5.406;2023-07-31T07:27:27;9.98;;;3.35;;
72156;SDS011;60035;52.122;5.406;2023-07-31T07:29:53;8.43;;;3.47;;
72156;SDS011;60035;52.122;5.406;2023-07-31T07:32:20;7.97;;;3.17;;
72156;SDS011;60035;52.122;5.406;2023-07-31T07:34:48;10.00;;;3.20;;
72156;SDS011;60035;52.122;5.406;2023-07-31T07:37:15;9.23;;;3.80;;
72156;SDS011;60035;52.122;5.406;2023-07-31T07:39:42;9.27;;;3.30;;
72156;SDS011;60035;52.122;5.406;2023-07-31T07:42:08;9.23;;;3.10;;
72156;SDS011;60035;52.122;5.406;2023-07-31T07:44:35;7.28;;;3.58;;
72156;SDS011;60035;52.122;5.406;2023-07-31T07:47:01;8.55;;;3.47;;
72156;SDS011;60035;52.122;5.406;2023-07-31T07:49:28;7.88;;;3.60;;
72156;SDS011;60035;52.122;5.406;2023-07-31T07:51:55;9.45;;;3.20;;
72156;SDS011;60035;52.122;5.406;2023-07-31T07:54:21;8.00;;;3.10;;
72156;SDS011;60035;52.122;5.406;2023-07-31T07:56:48;6.65;;;2.88;;
72156;SDS011;60035;52.122;5.406;2023-07-31T07:59:15;6.68;;;2.97;;
72156;SDS011;60035;52.122;5.406;2023-07-31T08:01:42;8.65;;;2.92;;
72156;SDS011;60035;52.122;5.406;2023-07-31T08:04:08;9.30;;;3.10;;
72156;SDS011;60035;52.122;5.406;2023-07-31T08:06:35;6.45;;;2.50;;
72156;SDS011;60035;52.122;5.406;2023-07-31T08:09:02;6.68;;;2.88;;
72156;SDS011;60035;52.122;5.406;2023-07-31T08:11:32;7.30;;;2.28;;
72156;SDS011;60035;52.122;5.406;2023-07-31T08:13:59;5.75;;;2.17;;
72156;SDS011;60035;52.122;5.406;2023-07-31T08:16:26;6.25;;;2.22;;
72156;SDS011;60035;52.122;5.406;2023-07-31T08:18:52;5.57;;;2.25;;
72156;SDS011;60035;52.122;5.406;2023-07-31T08:21:19;5.20;;;1.88;;
72156;SDS011;60035;52.122;5.406;2023-07-31T08:23:46;6.47;;;2.00;;
72156;SDS011;60035;52.122;5.406;2023-07-31T08:26:15;5.22;;;1.92;;
72156;SDS011;60035;52.122;5.406;2023-07-31T08:28:43;8.35;;;2.20;;
72156;SDS011;60035;52.122;5.406;2023-07-31T08:31:10;5.32;;;1.73;;
72156;SDS011;60035;52.122;5.406;2023-07-31T08:33:37;4.30;;;1.88;;
72156;SDS011;60035;52.122;5.406;2023-07-31T08:36:05;4.18;;;1.70;;
72156;SDS011;60035;52.122;5.406;2023-07-31T08:38:32;4.88;;;1.70;;
72156;SDS011;60035;52.122;5.406;2023-07-31T08:41:05;4.50;;;1.50;;
72156;SDS011;60035;52.122;5.406;2023-07-31T08:43:31;4.78;;;1.70;;
72156;SDS011;60035;52.122;5.406;2023-07-31T08:45:59;4.63;;;1.60;;
72156;SDS011;60035;52.122;5.406;2023-07-31T08:48:27;3.63;;;1.30;;
72156;SDS011;60035;52.122;5.406;2023-07-31T08:50:55;3.67;;;1.42;;
72156;SDS011;60035;52.122;5.406;2023-07-31T08:53:21;5.82;;;1.38;;
72156;SDS011;60035;52.122;5.406;2023-07-31T08:55:48;3.47;;;1.50;;
72156;SDS011;60035;52.122;5.406;2023-07-31T08:58:15;3.42;;;1.23;;
72156;SDS011;60035;52.122;5.406;2023-07-31T09:00:43;5.40;;;1.50;;
72156;SDS011;60035;52.122;5.406;2023-07-31T09:03:17;3.92;;;1.25;;
72156;SDS011;60035;52.122;5.406;2023-07-31T09:05:45;5.15;;;1.85;;
72156;SDS011;60035;52.122;5.406;2023-07-31T09:08:13;4.05;;;1.70;;
72156;SDS011;60035;52.122;5.406;2023-07-31T09:10:41;4.50;;;2.10;;
72156;SDS011;60035;52.122;5.406;2023-07-31T09:13:09;3.85;;;1.50;;
72156;SDS011;60035;52.122;5.406;2023-07-31T09:15:38;3.40;;;1.65;;
72156;SDS011;60035;52.122;5.406;2023-07-31T09:18:06;4.55;;;1.67;;
72156;SDS011;60035;52.122;5.406;2023-07-31T09:20:34;4.85;;;1.95;;
72156;SDS011;60035;52.122;5.406;2023-07-31T09:23:07;3.60;;;2.00;;
72156;SDS011;60035;52.122;5.406;2023-07-31T09:35:43;4.70;;;1.85;;
72156;SDS011;60035;52.122;5.406;2023-07-31T09:38:11;6.20;;;2.25;;
72156;SDS011;60035;52.122;5.406;2023-07-31T09:40:40;5.10;;;1.83;;
72156;SDS011;60035;52.122;5.406;2023-07-31T09:43:11;5.90;;;2.08;;
72156;SDS011;60035;52.122;5.406;2023-07-31T09:45:40;6.75;;;2.83;;
72156;SDS011;60035;52.122;5.406;2023-07-31T09:48:12;7.80;;;2.53;;
72156;SDS011;60035;52.122;5.406;2023-07-31T09:50:42;4.82;;;2.05;;
72156;SDS011;60035;52.122;5.406;2023-07-31T09:53:11;4.75;;;1.90;;
72156;SDS011;60035;52.122;5.406;2023-07-31T09:55:38;4.47;;;1.80;;
72156;SDS011;60035;52.122;5.406;2023-07-31T09:58:07;7.15;;;2.10;;
72156;SDS011;60035;52.122;5.406;2023-07-31T10:00:35;5.13;;;1.73;;
72156;SDS011;60035;52.122;5.406;2023-07-31T10:03:09;5.30;;;2.13;;
72156;SDS011;60035;52.122;5.406;2023-07-31T10:05:42;5.10;;;2.05;;
72156;SDS011;60035;52.122;5.406;2023-07-31T10:08:13;5.32;;;1.83;;
72156;SDS011;60035;52.122;5.406;2023-07-31T10:10:41;4.15;;;1.70;;
72156;SDS011;60035;52.122;5.406;2023-07-31T10:13:10;5.07;;;1.85;;
72156;SDS011;60035;52.122;5.406;2023-07-31T10:15:38;5.55;;;2.35;;
72156;SDS011;60035;52.122;5.406;2023-07-31T10:18:05;7.28;;;2.65;;
72156;SDS011;60035;52.122;5.406;2023-07-31T10:20:33;7.32;;;2.63;;
72156;SDS011;60035;52.122;5.406;2023-07-31T10:23:00;5.75;;;2.53;;
72156;SDS011;60035;52.122;5.406;2023-07-31T10:25:27;7.40;;;2.65;;
72156;SDS011;60035;52.122;5.406;2023-07-31T10:27:54;6.68;;;3.15;;
72156;SDS011;60035;52.122;5.406;2023-07-31T10:30:22;8.55;;;2.65;;
72156;SDS011;60035;52.122;5.406;2023-07-31T10:32:52;8.90;;;3.75;;
72156;SDS011;60035;52.122;5.406;2023-07-31T10:35:19;9.55;;;3.67;;
72156;SDS011;60035;52.122;5.406;2023-07-31T10:37:48;9.65;;;3.70;;
72156;SDS011;60035;52.122;5.406;2023-07-31T10:40:19;10.07;;;3.65;;
72156;SDS011;60035;52.122;5.406;2023-07-31T10:42:50;9.27;;;3.78;;
72156;SDS011;60035;52.122;5.406;2023-07-31T10:45:25;7.47;;;2.97;;
72156;SDS011;60035;52.122;5.406;2023-07-31T10:48:00;8.23;;;3.25;;
72156;SDS011;60035;52.122;5.406;2023-07-31T10:50:29;7.90;;;3.40;;
72156;SDS011;60035;52.122;5.406;2023-07-31T10:52:59;8.23;;;3.50;;
72156;SDS011;60035;52.122;5.406;2023-07-31T10:58:10;7.93;;;3.50;;
72156;SDS011;60035;52.122;5.406;2023-07-31T11:00:39;7.45;;;3.15;;
72156;SDS011;60035;52.122;5.406;2023-07-31T11:03:07;8.18;;;3.10;;
72156;SDS011;60035;52.122;5.406;2023-07-31T11:05:42;7.57;;;2.60;;
72156;SDS011;60035;52.122;5.406;2023-07-31T11:08:11;6.53;;;2.67;;
72156;SDS011;60035;52.122;5.406;2023-07-31T11:10:43;7.20;;;2.60;;
72156;SDS011;60035;52.122;5.406;2023-07-31T11:13:10;6.90;;;2.63;;
72156;SDS011;60035;52.122;5.406;2023-07-31T11:15:37;6.45;;;2.22;;
72156;SDS011;60035;52.122;5.406;2023-07-31T11:18:04;5.93;;;2.33;;
72156;SDS011;60035;52.122;5.406;2023-07-31T11:20:32;4.68;;;2.10;;
72156;SDS011;60035;52.122;5.406;2023-07-31T11:23:03;5.20;;;2.00;;
72156;SDS011;60035;52.122;5.406;2023-07-31T11:25:32;4.07;;;1.70;;
72156;SDS011;60035;52.122;5.406;2023-07-31T11:28:06;4.68;;;1.95;;
72156;SDS011;60035;52.122;5.406;2023-07-31T11:30:34;4.10;;;1.67;;
72156;SDS011;60035;52.122;5.406;2023-07-31T11:33:02;4.43;;;1.75;;
72156;SDS011;60035;52.122;5.406;2023-07-31T11:35:33;5.00;;;1.70;;
72156;SDS011;60035;52.122;5.406;2023-07-31T11:38:01;4.60;;;1.60;;
72156;SDS011;60035;52.122;5.406;2023-07-31T11:40:28;4.22;;;1.77;;
72156;SDS011;60035;52.122;5.406;2023-07-31T11:42:58;5.85;;;1.75;;
72156;SDS011;60035;52.122;5.406;2023-07-31T11:45:30;4.18;;;1.80;;
72156;SDS011;60035;52.122;5.406;2023-07-31T11:47:57;6.63;;;2.00;;
72156;SDS011;60035;52.122;5.406;2023-07-31T11:50:23;5.35;;;2.28;;
72156;SDS011;60035;52.122;5.406;2023-07-31T11:52:55;6.35;;;2.22;;
72156;SDS011;60035;52.122;5.406;2023-07-31T11:55:25;5.65;;;2.13;;
72156;SDS011;60035;52.122;5.406;2023-07-31T11:57:52;7.60;;;2.80;;
72156;SDS011;60035;52.122;5.406;2023-07-31T12:00:21;6.97;;;2.78;;
72156;SDS011;60035;52.122;5.406;2023-07-31T12:02:48;5.68;;;2.35;;
72156;SDS011;60035;52.122;5.406;2023-07-31T12:05:14;7.60;;;3.00;;
72156;SDS011;60035;52.122;5.406;2023-07-31T12:07:46;7.43;;;3.15;;
72156;SDS011;60035;52.122;5.406;2023-07-31T12:13:05;7.05;;;2.47;;
72156;SDS011;60035;52.122;5.406;2023-07-31T12:15:38;6.32;;;2.60;;
72156;SDS011;60035;52.122;5.406;2023-07-31T12:18:12;6.00;;;2.47;;
72156;SDS011;60035;52.122;5.406;2023-07-31T12:20:48;5.15;;;2.08;;
72156;SDS011;60035;52.122;5.406;2023-07-31T12:23:20;6.68;;;2.70;;
72156;SDS011;60035;52.122;5.406;2023-07-31T12:26:04;5.97;;;2.47;;
72156;SDS011;60035;52.122;5.406;2023-07-31T12:28:32;7.30;;;2.33;;
72156;SDS011;60035;52.122;5.406;2023-07-31T12:31:01;5.00;;;2.30;;
72156;SDS011;60035;52.122;5.406;2023-07-31T12:33:32;6.82;;;2.03;;
72156;SDS011;60035;52.122;5.406;2023-07-31T12:36:04;5.65;;;2.25;;
72156;SDS011;60035;52.122;5.406;2023-07-31T12:38:34;5.35;;;2.13;;
72156;SDS011;60035;52.122;5.406;2023-07-31T12:41:00;5.13;;;2.47;;
72156;SDS011;60035;52.122;5.406;2023-07-31T12:43:27;4.97;;;2.20;;
72156;SDS011;60035;52.122;5.406;2023-07-31T12:45:54;5.72;;;2.40;;
72156;SDS011;60035;52.122;5.406;2023-07-31T12:48:22;6.72;;;2.70;;
72156;SDS011;60035;52.122;5.406;2023-07-31T12:50:49;6.57;;;2.58;;
72156;SDS011;60035;52.122;5.406;2023-07-31T12:53:15;5.88;;;2.92;;
72156;SDS011;60035;52.122;5.406;2023-07-31T12:55:42;6.97;;;3.00;;
72156;SDS011;60035;52.122;5.406;2023-07-31T12:58:09;5.90;;;2.72;;
72156;SDS011;60035;52.122;5.406;2023-07-31T13:00:35;6.82;;;2.90;;
72156;SDS011;60035;52.122;5.406;2023-07-31T13:03:02;6.72;;;3.03;;
72156;SDS011;60035;52.122;5.406;2023-07-31T13:05:29;5.82;;;2.90;;
72156;SDS011;60035;52.122;5.406;2023-07-31T13:07:56;7.28;;;3.25;;
72156;SDS011;60035;52.122;5.406;2023-07-31T13:10:23;6.13;;;2.90;;
72156;SDS011;60035;52.122;5.406;2023-07-31T13:12:50;6.25;;;2.70;;
72156;SDS011;60035;52.122;5.406;2023-07-31T13:15:16;5.40;;;2.67;;
72156;SDS011;60035;52.122;5.406;2023-07-31T13:17:43;8.73;;;3.05;;
72156;SDS011;60035;52.122;5.406;2023-07-31T13:20:10;6.95;;;3.05;;
72156;SDS011;60035;52.122;5.406;2023-07-31T13:22:37;7.82;;;3.28;;
72156;SDS011;60035;52.122;5.406;2023-07-31T13:25:03;7.40;;;2.97;;
72156;SDS011;60035;52.122;5.406;2023-07-31T13:27:31;7.22;;;2.95;;
72156;SDS011;60035;52.122;5.406;2023-07-31T13:29:58;6.40;;;2.92;;
72156;SDS011;60035;52.122;5.406;2023-07-31T13:32:24;6.22;;;2.85;;
72156;SDS011;60035;52.122;5.406;2023-07-31T13:34:51;6.65;;;3.22;;
72156;SDS011;60035;52.122;5.406;2023-07-31T13:37:18;6.10;;;2.92;;
72156;SDS011;60035;52.122;5.406;2023-07-31T13:39:44;5.88;;;2.60;;
72156;SDS011;60035;52.122;5.406;2023-07-31T13:42:11;7.07;;;2.95;;
72156;SDS011;60035;52.122;5.406;2023-07-31T13:44:38;4.68;;;1.98;;
72156;SDS011;60035;52.122;5.406;2023-07-31T13:47:05;4.13;;;1.70;;
72156;SDS011;60035;52.122;5.406;2023-07-31T13:49:33;3.33;;;1.38;;
72156;SDS011;60035;52.122;5.406;2023-07-31T13:52:00;3.85;;;1.77;;
72156;SDS011;60035;52.122;5.406;2023-07-31T13:54:27;5.22;;;1.58;;
72156;SDS011;60035;52.122;5.406;2023-07-31T13:56:56;5.30;;;1.95;;
72156;SDS011;60035;52.122;5.406;2023-07-31T13:59:23;4.97;;;2.15;;
72156;SDS011;60035;52.122;5.406;2023-07-31T14:04:42;4.93;;;1.60;;
72156;SDS011;60035;52.122;5.406;2023-07-31T14:07:09;4.65;;;1.70;;
72156;SDS011;60035;52.122;5.406;2023-07-31T14:09:36;4.95;;;1.60;;
72156;SDS011;60035;52.122;5.406;2023-07-31T14:12:02;3.97;;;1.73;;
72156;SDS011;60035;52.122;5.406;2023-07-31T14:14:32;4.90;;;1.88;;
72156;SDS011;60035;52.122;5.406;2023-07-31T14:17:00;6.72;;;2.30;;
72156;SDS011;60035;52.122;5.406;2023-07-31T14:19:27;6.13;;;2.75;;
72156;SDS011;60035;52.122;5.406;2023-07-31T14:21:54;7.03;;;3.10;;
72156;SDS011;60035;52.122;5.406;2023-07-31T14:24:36;8.80;;;4.40;;
72156;SDS011;60035;52.122;5.406;2023-07-31T14:27:02;9.73;;;4.57;;
72156;SDS011;60035;52.122;5.406;2023-07-31T14:29:35;10.15;;;5.10;;
72156;SDS011;60035;52.122;5.406;2023-07-31T14:32:02;9.80;;;5.10;;
72156;SDS011;60035;52.122;5.406;2023-07-31T14:34:28;10.43;;;5.28;;
72156;SDS011;60035;52.122;5.406;2023-07-31T14:36:58;11.90;;;5.38;;
72156;SDS011;60035;52.122;5.406;2023-07-31T14:39:24;10.90;;;5.30;;
72156;SDS011;60035;52.122;5.406;2023-07-31T14:41:51;11.98;;;6.00;;
72156;SDS011;60035;52.122;5.406;2023-07-31T14:44:17;10.93;;;5.72;;
72156;SDS011;60035;52.122;5.406;2023-07-31T14:46:44;10.52;;;5.53;;
72156;SDS011;60035;52.122;5.406;2023-07-31T14:49:10;10.48;;;5.45;;
72156;SDS011;60035;52.122;5.406;2023-07-31T14:51:37;8.93;;;4.53;;
72156;SDS011;60035;52.122;5.406;2023-07-31T14:54:03;8.93;;;4.68;;
72156;SDS011;60035;52.122;5.406;2023-07-31T14:56:30;10.70;;;4.38;;
72156;SDS011;60035;52.122;5.406;2023-07-31T14:58:57;9.35;;;4.28;;
72156;SDS011;60035;52.122;5.406;2023-07-31T15:01:23;9.48;;;4.13;;
72156;SDS011;60035;52.122;5.406;2023-07-31T15:03:50;11.35;;;4.18;;
72156;SDS011;60035;52.122;5.406;2023-07-31T15:06:17;9.30;;;4.05;;
72156;SDS011;60035;52.122;5.406;2023-07-31T15:08:43;8.93;;;3.70;;
72156;SDS011;60035;52.122;5.406;2023-07-31T15:11:10;8.00;;;3.58;;
72156;SDS011;60035;52.122;5.406;2023-07-31T15:13:36;7.32;;;3.10;;